Time;durP1;ratioP1;P1;durP2;ratioP2;P2;SDS_P1;SDS_P2;PMS_P1;PMS_P2;Temp;Humidity;BMP_temperature;BMP_pressure;BME280_temperature;BME280_humidity;BME280_pressure;Samples;Min_cycle;Max_cycle;Signal;HPM_P1;HPM_P2
2022/03/04 00:02:25;;;;;;;16.63;9.02;;;;;;;;;;5010184;28;20029;-64
2022/03/04 00:04:50;;;;;;;11.50;7.50;;;;;;;;;;5010465;28;20375;-64
2022/03/04 00:07:16;;;;;;;14.13;7.97;;;;;;;;;;5009766;28;20385;-63
2022/03/04 00:09:41;;;;;;;11.13;7.38;;;;;;;;;;5010195;28;20087;-64
2022/03/04 00:12:08;;;;;;;12.13;7.70;;;;;;;;;;5010175;28;20034;-64
2022/03/04 00:14:34;;;;;;;12.32;7.22;;;;;;;;;;5010221;28;20030;-64
2022/03/04 00:16:59;;;;;;;12.30;7.22;;;;;;;;;;5009916;28;20045;-64
2022/03/04 00:19:25;;;;;;;11.63;7.15;;;;;;;;;;5010095;28;20037;-64
2022/03/04 00:21:51;;;;;;;12.57;6.82;;;;;;;;;;5010466;28;20042;-64
2022/03/04 00:24:19;;;;;;;12.70;7.10;;;;;;;;;;5009796;28;20053;-64
2022/03/04 00:26:46;;;;;;;9.63;6.70;;;;;;;;;;5013288;28;20041;-63
2022/03/04 00:29:11;;;;;;;11.50;7.00;;;;;;;;;;5013968;28;20032;-64
2022/03/04 00:31:38;;;;;;;10.90;6.78;;;;;;;;;;5013993;28;20029;-64
2022/03/04 00:34:08;;;;;;;11.27;6.55;;;;;;;;;;5013739;28;20038;-64
2022/03/04 00:36:35;;;;;;;9.88;6.38;;;;;;;;;;5013853;28;20053;-64
2022/03/04 00:39:02;;;;;;;11.65;6.80;;;;;;;;;;5013868;28;20033;-64
2022/03/04 00:41:27;;;;;;;10.50;6.72;;;;;;;;;;5013905;28;20037;-64
2022/03/04 00:43:53;;;;;;;12.05;7.32;;;;;;;;;;5013516;28;20030;-64
2022/03/04 00:46:19;;;;;;;9.65;7.45;;;;;;;;;;5013647;28;20490;-64
2022/03/04 00:48:45;;;;;;;11.68;6.88;;;;;;;;;;5013497;28;20026;-64
2022/03/04 00:51:12;;;;;;;10.48;6.72;;;;;;;;;;5013940;28;20040;-64
2022/03/04 00:53:38;;;;;;;11.00;7.63;;;;;;;;;;5013974;28;20034;-64
2022/03/04 00:56:06;;;;;;;10.60;6.82;;;;;;;;;;5013484;28;20494;-64
2022/03/04 00:58:32;;;;;;;10.43;6.63;;;;;;;;;;5013311;28;20449;-64
2022/03/04 01:00:58;;;;;;;10.50;6.95;;;;;;;;;;5013463;28;20042;-64
2022/03/04 01:03:23;;;;;;;11.02;6.88;;;;;;;;;;5013224;28;20033;-64
2022/03/04 01:05:49;;;;;;;10.13;7.00;;;;;;;;;;5013458;28;20058;-64
2022/03/04 01:08:14;;;;;;;12.63;7.38;;;;;;;;;;5013101;28;20084;-64
2022/03/04 01:10:39;;;;;;;9.98;6.63;;;;;;;;;;5013578;28;20037;-64
2022/03/04 01:13:05;;;;;;;10.85;6.47;;;;;;;;;;5013086;28;20105;-64
2022/03/04 01:15:30;;;;;;;10.05;6.70;;;;;;;;;;5013136;28;20030;-64
2022/03/04 01:17:56;;;;;;;10.82;6.25;;;;;;;;;;5012934;28;20056;-64
2022/03/04 01:20:25;;;;;;;11.38;6.32;;;;;;;;;;5013156;28;20520;-64
2022/03/04 01:22:50;;;;;;;12.98;7.35;;;;;;;;;;5028333;28;20390;-64
2022/03/04 01:25:16;;;;;;;12.52;7.03;;;;;;;;;;5013060;28;20458;-64
2022/03/04 01:27:42;;;;;;;12.35;6.90;;;;;;;;;;5012977;28;20030;-64
2022/03/04 01:30:09;;;;;;;11.13;6.88;;;;;;;;;;5012698;28;20026;-64
2022/03/04 01:32:35;;;;;;;11.57;6.57;;;;;;;;;;5012735;28;20087;-64
2022/03/04 01:35:01;;;;;;;11.75;6.82;;;;;;;;;;5012612;28;20034;-64
2022/03/04 01:37:26;;;;;;;11.43;6.95;;;;;;;;;;5012468;28;20029;-64
2022/03/04 01:39:52;;;;;;;13.13;7.68;;;;;;;;;;5012691;28;20018;-63
2022/03/04 01:42:18;;;;;;;11.10;7.40;;;;;;;;;;5012824;28;20026;-63
2022/03/04 01:44:43;;;;;;;13.43;6.95;;;;;;;;;;5012558;28;20440;-63
2022/03/04 01:47:09;;;;;;;10.82;7.07;;;;;;;;;;5012479;28;20576;-63
2022/03/04 01:49:35;;;;;;;10.65;6.72;;;;;;;;;;5012543;28;20229;-63
2022/03/04 01:52:00;;;;;;;12.90;7.07;;;;;;;;;;5012437;28;20022;-63
2022/03/04 01:54:26;;;;;;;10.20;6.70;;;;;;;;;;5012325;28;20022;-63
2022/03/04 01:56:52;;;;;;;10.82;6.72;;;;;;;;;;5012309;28;20533;-63
2022/03/04 01:59:18;;;;;;;12.07;6.88;;;;;;;;;;5012383;28;20042;-63
2022/03/04 02:01:43;;;;;;;10.75;6.93;;;;;;;;;;5012453;28;20022;-63
2022/03/04 02:04:09;;;;;;;10.82;7.03;;;;;;;;;;5012013;28;20072;-63
2022/03/04 02:06:35;;;;;;;10.38;6.70;;;;;;;;;;5011848;28;20029;-63
2022/03/04 02:09:01;;;;;;;11.25;6.85;;;;;;;;;;5011913;28;20042;-63
2022/03/04 02:11:26;;;;;;;11.45;6.70;;;;;;;;;;5012191;28;20113;-65
2022/03/04 02:13:52;;;;;;;10.65;6.80;;;;;;;;;;5012125;28;20026;-65
2022/03/04 02:16:34;;;;;;;11.07;6.93;;;;;;;;;;5011902;28;20579;-65
2022/03/04 02:19:00;;;;;;;10.32;6.50;;;;;;;;;;5011994;28;20034;-65
2022/03/04 02:21:27;;;;;;;10.25;6.32;;;;;;;;;;5012081;28;20105;-65
2022/03/04 02:23:52;;;;;;;8.90;6.38;;;;;;;;;;5011814;28;20022;-65
2022/03/04 02:26:19;;;;;;;8.73;5.22;;;;;;;;;;5011634;28;20416;-65
2022/03/04 02:28:45;;;;;;;8.77;5.57;;;;;;;;;;5011949;28;20117;-65
2022/03/04 02:31:15;;;;;;;12.45;5.78;;;;;;;;;;5015489;28;20033;-65
2022/03/04 02:33:40;;;;;;;9.23;5.50;;;;;;;;;;5021328;28;20041;-65
2022/03/04 02:36:06;;;;;;;9.60;5.40;;;;;;;;;;5022036;28;20267;-65
2022/03/04 02:38:32;;;;;;;8.35;5.60;;;;;;;;;;5021819;28;20202;-65
2022/03/04 02:40:57;;;;;;;8.65;4.88;;;;;;;;;;5021112;28;20038;-65
2022/03/04 02:43:22;;;;;;;8.85;4.88;;;;;;;;;;5020969;28;20056;-65
2022/03/04 02:45:49;;;;;;;9.77;5.32;;;;;;;;;;5021109;28;20034;-65
2022/03/04 02:48:14;;;;;;;8.75;4.93;;;;;;;;;;5021287;28;20026;-65
2022/03/04 02:50:40;;;;;;;9.23;4.85;;;;;;;;;;5021781;28;20257;-65
2022/03/04 02:53:05;;;;;;;11.48;4.90;;;;;;;;;;5021355;28;20029;-65
2022/03/04 02:55:31;;;;;;;8.18;5.32;;;;;;;;;;5021097;28;20028;-65
2022/03/04 02:57:56;;;;;;;7.40;5.10;;;;;;;;;;5020906;28;20021;-65
2022/03/04 03:00:22;;;;;;;11.05;5.78;;;;;;;;;;5021231;28;20029;-65
2022/03/04 03:02:47;;;;;;;10.27;5.18;;;;;;;;;;5021525;28;20029;-65
2022/03/04 03:05:13;;;;;;;9.07;5.07;;;;;;;;;;5036314;28;20250;-65
2022/03/04 03:07:38;;;;;;;9.95;4.57;;;;;;;;;;5020666;28;20540;-65
2022/03/04 03:10:05;;;;;;;8.07;4.15;;;;;;;;;;5020611;28;20045;-65
2022/03/04 03:12:30;;;;;;;9.60;4.35;;;;;;;;;;5021399;28;20040;-65
2022/03/04 03:14:56;;;;;;;7.10;4.05;;;;;;;;;;5021607;28;20041;-65
2022/03/04 03:17:21;;;;;;;5.93;3.88;;;;;;;;;;5020666;28;20033;-64
2022/03/04 03:19:47;;;;;;;5.85;4.00;;;;;;;;;;5020600;28;20060;-65
2022/03/04 03:22:16;;;;;;;7.57;4.07;;;;;;;;;;5021019;28;20125;-65
2022/03/04 03:24:42;;;;;;;7.13;3.80;;;;;;;;;;5021158;28;20557;-65
2022/03/04 03:27:08;;;;;;;7.22;3.67;;;;;;;;;;5020388;28;20040;-64
2022/03/04 03:29:33;;;;;;;5.85;4.00;;;;;;;;;;5021527;28;20026;-64
2022/03/04 03:31:58;;;;;;;6.78;3.92;;;;;;;;;;5020784;28;20259;-64
2022/03/04 03:34:24;;;;;;;7.55;3.92;;;;;;;;;;5020753;28;20455;-64
2022/03/04 03:36:49;;;;;;;6.82;3.55;;;;;;;;;;5020436;28;20087;-65
2022/03/04 03:39:15;;;;;;;6.07;3.63;;;;;;;;;;5020934;28;20034;-65
2022/03/04 03:41:40;;;;;;;6.75;3.90;;;;;;;;;;5020599;28;20036;-65
2022/03/04 03:44:06;;;;;;;6.10;4.03;;;;;;;;;;5020734;28;20272;-65
2022/03/04 03:46:31;;;;;;;5.95;4.50;;;;;;;;;;5020753;28;20030;-64
2022/03/04 03:48:58;;;;;;;5.93;4.22;;;;;;;;;;5020212;28;20037;-65
2022/03/04 03:51:23;;;;;;;11.07;4.75;;;;;;;;;;5020246;28;20036;-65
2022/03/04 03:53:48;;;;;;;9.20;5.50;;;;;;;;;;5020451;28;20046;-65
2022/03/04 03:56:14;;;;;;;7.45;4.43;;;;;;;;;;5020587;28;20025;-65
2022/03/04 03:58:39;;;;;;;8.30;4.80;;;;;;;;;;5020388;28;20093;-64
2022/03/04 04:01:05;;;;;;;8.80;4.57;;;;;;;;;;5020095;28;20079;-65
2022/03/04 04:03:30;;;;;;;7.18;4.82;;;;;;;;;;5020605;28;20033;-64
2022/03/04 04:05:56;;;;;;;6.80;4.75;;;;;;;;;;5020452;28;20309;-65
2022/03/04 04:08:22;;;;;;;7.97;4.78;;;;;;;;;;5019724;28;20064;-65
2022/03/04 04:10:47;;;;;;;6.05;4.60;;;;;;;;;;5035237;28;20100;-64
2022/03/04 04:13:13;;;;;;;6.38;4.40;;;;;;;;;;5019581;28;20364;-65
2022/03/04 04:15:38;;;;;;;9.05;4.72;;;;;;;;;;5020454;28;20030;-64
2022/03/04 04:18:04;;;;;;;7.95;4.22;;;;;;;;;;5020341;28;20029;-65
2022/03/04 04:20:29;;;;;;;8.27;4.68;;;;;;;;;;5019874;28;20040;-64
2022/03/04 04:22:55;;;;;;;6.32;4.55;;;;;;;;;;5020534;28;20026;-65
2022/03/04 04:25:20;;;;;;;7.43;4.50;;;;;;;;;;5020097;28;20041;-65
2022/03/04 04:27:46;;;;;;;7.18;4.53;;;;;;;;;;5020178;28;20038;-64
2022/03/04 04:30:11;;;;;;;8.82;4.85;;;;;;;;;;5019819;28;20034;-64
2022/03/04 04:32:37;;;;;;;9.20;4.18;;;;;;;;;;5020470;28;20098;-64
2022/03/04 04:35:03;;;;;;;8.77;4.50;;;;;;;;;;5020016;28;20095;-64
2022/03/04 04:37:29;;;;;;;7.68;4.55;;;;;;;;;;5019551;28;20040;-64
2022/03/04 04:39:55;;;;;;;7.15;4.10;;;;;;;;;;5020419;28;20469;-64
2022/03/04 04:42:21;;;;;;;8.68;4.30;;;;;;;;;;5019494;28;20101;-64
2022/03/04 04:44:46;;;;;;;7.90;4.55;;;;;;;;;;5020094;28;20088;-64
2022/03/04 04:47:12;;;;;;;7.50;4.47;;;;;;;;;;5019404;28;20052;-64
2022/03/04 04:49:38;;;;;;;6.47;4.40;;;;;;;;;;5020355;28;20275;-64
2022/03/04 04:52:05;;;;;;;7.90;4.85;;;;;;;;;;5020314;28;20101;-64
2022/03/04 04:54:32;;;;;;;6.05;4.40;;;;;;;;;;5019881;28;20033;-64
2022/03/04 04:56:57;;;;;;;9.18;4.47;;;;;;;;;;5019978;28;20029;-64
2022/03/04 04:59:22;;;;;;;8.73;4.82;;;;;;;;;;5019632;28;20033;-64
2022/03/04 05:01:48;;;;;;;7.07;4.50;;;;;;;;;;5019743;28;20029;-64
2022/03/04 05:04:13;;;;;;;6.70;4.25;;;;;;;;;;5019721;28;20413;-63
2022/03/04 05:06:39;;;;;;;6.95;4.03;;;;;;;;;;5019810;28;20038;-65
2022/03/04 05:09:04;;;;;;;5.45;3.85;;;;;;;;;;5019465;28;20072;-65
2022/03/04 05:11:30;;;;;;;8.45;4.88;;;;;;;;;;5020541;28;20061;-64
2022/03/04 05:13:55;;;;;;;7.38;4.47;;;;;;;;;;5024008;28;20089;-64
2022/03/04 05:16:21;;;;;;;7.22;4.28;;;;;;;;;;5022690;28;20229;-64
2022/03/04 05:18:46;;;;;;;12.15;5.25;;;;;;;;;;5023341;28;20097;-64
2022/03/04 05:21:12;;;;;;;7.45;5.00;;;;;;;;;;5022755;28;20112;-64
2022/03/04 05:26:21;;;;;;;7.55;5.30;;;;;;;;;;5022519;28;20144;-64
2022/03/04 05:28:47;;;;;;;10.02;5.07;;;;;;;;;;5023095;28;20221;-64
2022/03/04 05:31:12;;;;;;;7.35;4.55;;;;;;;;;;5022655;28;20328;-64
2022/03/04 05:33:38;;;;;;;9.25;5.20;;;;;;;;;;5022243;28;20108;-64
2022/03/04 05:36:03;;;;;;;8.50;5.18;;;;;;;;;;5023154;28;20026;-64
2022/03/04 05:38:29;;;;;;;8.70;5.20;;;;;;;;;;5022512;28;20196;-64
2022/03/04 05:40:54;;;;;;;9.05;4.95;;;;;;;;;;5023065;28;20265;-64
2022/03/04 05:43:20;;;;;;;12.50;6.07;;;;;;;;;;5022984;28;20210;-64
2022/03/04 05:45:45;;;;;;;9.18;5.28;;;;;;;;;;5023180;28;20022;-64
2022/03/04 05:48:11;;;;;;;8.63;5.32;;;;;;;;;;5022183;28;20034;-64
2022/03/04 05:50:37;;;;;;;9.73;5.78;;;;;;;;;;5022276;28;20091;-64
2022/03/04 05:53:02;;;;;;;11.10;6.03;;;;;;;;;;5022812;28;20041;-64
2022/03/04 05:55:28;;;;;;;9.07;5.68;;;;;;;;;;5022416;28;20028;-64
2022/03/04 05:57:53;;;;;;;8.27;5.70;;;;;;;;;;5022578;28;20025;-64
2022/03/04 06:00:19;;;;;;;8.55;5.38;;;;;;;;;;5023001;28;20033;-64
2022/03/04 06:02:44;;;;;;;8.35;5.88;;;;;;;;;;5022387;28;20026;-64
2022/03/04 06:05:10;;;;;;;10.27;5.63;;;;;;;;;;5022606;28;20033;-64
2022/03/04 06:07:35;;;;;;;11.40;6.43;;;;;;;;;;5021959;28;20041;-64
2022/03/04 06:10:02;;;;;;;10.95;6.20;;;;;;;;;;5021946;28;20034;-64
2022/03/04 06:12:28;;;;;;;11.93;6.63;;;;;;;;;;5022211;28;20033;-64
2022/03/04 06:14:53;;;;;;;11.23;6.28;;;;;;;;;;5022102;28;20030;-64
2022/03/04 06:17:19;;;;;;;9.82;5.97;;;;;;;;;;5021702;28;20072;-64
2022/03/04 06:19:44;;;;;;;10.05;6.25;;;;;;;;;;5022249;28;20253;-64
2022/03/04 06:22:10;;;;;;;10.93;6.18;;;;;;;;;;5022050;28;20473;-64
2022/03/04 06:24:37;;;;;;;12.07;6.47;;;;;;;;;;5021490;28;20030;-64
2022/03/04 06:27:02;;;;;;;14.65;7.32;;;;;;;;;;5022182;28;20089;-64
2022/03/04 06:29:28;;;;;;;11.43;6.85;;;;;;;;;;5021880;28;20060;-64
2022/03/04 06:31:53;;;;;;;11.52;6.80;;;;;;;;;;5021816;28;20029;-63
2022/03/04 06:34:19;;;;;;;12.85;7.72;;;;;;;;;;5021330;28;20053;-64
2022/03/04 06:36:44;;;;;;;14.07;6.88;;;;;;;;;;5021691;28;20061;-64
2022/03/04 06:39:10;;;;;;;12.10;6.60;;;;;;;;;;5021992;28;20025;-64
2022/03/04 06:41:37;;;;;;;12.82;6.70;;;;;;;;;;5021348;28;20187;-64
2022/03/04 06:44:03;;;;;;;14.88;6.95;;;;;;;;;;5021916;28;20377;-64
2022/03/04 06:46:29;;;;;;;11.95;6.57;;;;;;;;;;5021575;28;20022;-64
2022/03/04 06:48:54;;;;;;;15.23;7.03;;;;;;;;;;5020463;28;20076;-65
2022/03/04 06:51:20;;;;;;;13.63;7.50;;;;;;;;;;5021254;28;20107;-64
2022/03/04 06:53:45;;;;;;;12.10;7.20;;;;;;;;;;5020874;28;20072;-64
2022/03/04 06:56:11;;;;;;;9.85;6.60;;;;;;;;;;5021200;28;20053;-65
2022/03/04 06:58:36;;;;;;;12.15;7.00;;;;;;;;;;5019234;28;20029;-64
2022/03/04 07:01:03;;;;;;;12.98;6.47;;;;;;;;;;5020401;28;20033;-64
2022/03/04 07:03:29;;;;;;;15.05;7.05;;;;;;;;;;5021162;28;20080;-65
2022/03/04 07:05:54;;;;;;;11.73;6.50;;;;;;;;;;5020622;28;20022;-65
2022/03/04 07:08:20;;;;;;;11.65;6.70;;;;;;;;;;5020773;28;20034;-64
2022/03/04 07:10:47;;;;;;;10.52;6.57;;;;;;;;;;5021236;28;20022;-65
2022/03/04 07:13:14;;;;;;;9.15;6.32;;;;;;;;;;5020744;28;20025;-65
2022/03/04 07:15:40;;;;;;;11.25;5.75;;;;;;;;;;5020655;28;20093;-64
2022/03/04 07:18:06;;;;;;;10.35;5.93;;;;;;;;;;5020808;28;20037;-65
2022/03/04 07:20:31;;;;;;;11.05;5.85;;;;;;;;;;5019655;28;20026;-66
2022/03/04 07:22:57;;;;;;;9.05;5.95;;;;;;;;;;5020310;28;20045;-67
2022/03/04 07:25:23;;;;;;;13.70;6.80;;;;;;;;;;5020679;28;20504;-66
2022/03/04 07:27:48;;;;;;;11.25;5.43;;;;;;;;;;5019360;28;20080;-65
2022/03/04 07:30:16;;;;;;;12.23;5.78;;;;;;;;;;5019071;28;20057;-65
2022/03/04 07:32:42;;;;;;;12.82;6.40;;;;;;;;;;5019314;28;20033;-65
2022/03/04 07:35:09;;;;;;;12.40;6.63;;;;;;;;;;5018779;28;20066;-66
2022/03/04 07:37:35;;;;;;;13.85;6.88;;;;;;;;;;5019023;28;20026;-66
2022/03/04 07:40:03;;;;;;;10.70;6.15;;;;;;;;;;5018446;28;20346;-66
2022/03/04 07:42:28;;;;;;;11.50;6.63;;;;;;;;;;5019226;28;20140;-66
2022/03/04 07:44:54;;;;;;;16.75;8.80;;;;;;;;;;5020549;28;20022;-66
2022/03/04 07:47:19;;;;;;;12.45;7.13;;;;;;;;;;5020260;28;20017;-66
2022/03/04 07:49:44;;;;;;;35.05;19.00;;;;;;;;;;5020213;28;20253;-66
2022/03/04 07:52:13;;;;;;;19.45;12.23;;;;;;;;;;5020099;28;20030;-66
2022/03/04 07:54:38;;;;;;;24.77;11.73;;;;;;;;;;5020924;28;20029;-67
2022/03/04 07:57:04;;;;;;;15.88;8.00;;;;;;;;;;5020002;28;20199;-66
2022/03/04 07:59:30;;;;;;;16.13;8.50;;;;;;;;;;5020306;28;20041;-65
2022/03/04 08:01:55;;;;;;;12.32;5.60;;;;;;;;;;5020789;28;20025;-65
2022/03/04 08:04:21;;;;;;;16.13;5.68;;;;;;;;;;5020644;28;20029;-65
2022/03/04 08:06:46;;;;;;;12.63;5.63;;;;;;;;;;5020205;28;20029;-66
2022/03/04 08:09:12;;;;;;;12.60;5.72;;;;;;;;;;5025037;28;20056;-64
2022/03/04 08:11:37;;;;;;;11.13;5.35;;;;;;;;;;5020151;28;20034;-64
2022/03/04 08:14:03;;;;;;;10.52;4.88;;;;;;;;;;5019694;28;20076;-65
2022/03/04 08:16:29;;;;;;;9.35;4.90;;;;;;;;;;5020084;28;20275;-64
2022/03/04 08:18:58;;;;;;;11.45;5.28;;;;;;;;;;5020642;28;20037;-67
2022/03/04 08:21:24;;;;;;;10.77;5.10;;;;;;;;;;5021018;28;20029;-73
2022/03/04 08:23:50;;;;;;;11.07;5.05;;;;;;;;;;5020108;28;20089;-66
2022/03/04 08:26:15;;;;;;;10.57;5.28;;;;;;;;;;5019826;28;20022;-65
2022/03/04 08:28:41;;;;;;;13.27;5.00;;;;;;;;;;5019655;28;20041;-66
2022/03/04 08:31:13;;;;;;;9.27;4.93;;;;;;;;;;5019456;28;20101;-66
2022/03/04 08:33:40;;;;;;;13.18;4.95;;;;;;;;;;5019687;28;20325;-65
2022/03/04 08:36:06;;;;;;;11.93;4.90;;;;;;;;;;5020445;28;20156;-70
2022/03/04 08:38:32;;;;;;;12.88;5.45;;;;;;;;;;5021104;28;20061;-65
2022/03/04 08:40:58;;;;;;;11.80;5.20;;;;;;;;;;5020527;28;20088;-75
2022/03/04 08:43:24;;;;;;;10.60;5.03;;;;;;;;;;5020764;28;20041;-67
2022/03/04 08:45:49;;;;;;;14.93;5.00;;;;;;;;;;5019965;28;20025;-66
2022/03/04 08:48:15;;;;;;;11.20;4.35;;;;;;;;;;5024260;28;20030;-67
2022/03/04 08:50:40;;;;;;;12.98;4.40;;;;;;;;;;5024220;28;20021;-71
2022/03/04 08:53:06;;;;;;;13.75;5.15;;;;;;;;;;5023316;28;20049;-70
2022/03/04 08:55:31;;;;;;;7.95;4.03;;;;;;;;;;5023458;28;20042;-68
2022/03/04 08:57:58;;;;;;;9.77;4.03;;;;;;;;;;5023686;28;20025;-67
2022/03/04 09:00:23;;;;;;;8.98;4.13;;;;;;;;;;5023226;28;20030;-65
2022/03/04 09:02:49;;;;;;;8.10;3.50;;;;;;;;;;5022712;28;20060;-67
2022/03/04 09:05:15;;;;;;;11.75;4.65;;;;;;;;;;5026955;28;20037;-64
2022/03/04 09:07:40;;;;;;;8.23;3.65;;;;;;;;;;5015834;28;20034;-65
2022/03/04 09:10:07;;;;;;;8.32;3.45;;;;;;;;;;5017214;28;20030;-67
2022/03/04 09:12:32;;;;;;;6.47;2.92;;;;;;;;;;5017080;28;20033;-69
2022/03/04 09:14:58;;;;;;;8.27;3.25;;;;;;;;;;5012801;28;20026;-70
2022/03/04 09:17:23;;;;;;;7.60;2.97;;;;;;;;;;5011811;28;20025;-74
2022/03/04 09:19:49;;;;;;;6.28;2.97;;;;;;;;;;5012868;28;20037;-68
2022/03/04 09:22:15;;;;;;;4.47;2.60;;;;;;;;;;5012943;28;20105;-65
2022/03/04 09:24:40;;;;;;;6.18;3.10;;;;;;;;;;5011767;28;20129;-72
2022/03/04 09:27:06;;;;;;;6.95;3.10;;;;;;;;;;5012684;28;20479;-74
2022/03/04 09:29:32;;;;;;;5.72;2.97;;;;;;;;;;5012223;28;20030;-67
2022/03/04 09:31:58;;;;;;;6.25;3.13;;;;;;;;;;5012985;28;20080;-66
2022/03/04 09:34:23;;;;;;;8.43;3.05;;;;;;;;;;5012299;28;20046;-65
2022/03/04 09:36:49;;;;;;;9.07;3.42;;;;;;;;;;5013172;28;20525;-72
2022/03/04 09:39:17;;;;;;;8.80;3.78;;;;;;;;;;5012465;28;20023;-71
2022/03/04 09:41:45;;;;;;;7.38;3.78;;;;;;;;;;5012956;28;20101;-66
2022/03/04 09:44:15;;;;;;;13.05;4.00;;;;;;;;;;5012346;28;20030;-70
2022/03/04 09:46:41;;;;;;;7.93;4.25;;;;;;;;;;5010304;28;20026;-65
2022/03/04 09:49:08;;;;;;;11.55;3.78;;;;;;;;;;5012140;28;20030;-69
2022/03/04 09:51:33;;;;;;;9.60;3.92;;;;;;;;;;5012494;28;20355;-67
2022/03/04 09:53:59;;;;;;;10.65;4.20;;;;;;;;;;5012319;28;20151;-66
2022/03/04 09:56:25;;;;;;;14.65;4.10;;;;;;;;;;5012421;28;20022;-66
2022/03/04 09:58:50;;;;;;;14.00;3.78;;;;;;;;;;5012368;28;20026;-66
2022/03/04 10:01:16;;;;;;;5.38;2.20;;;;;;;;;;5011908;28;20032;-65
2022/03/04 10:03:43;;;;;;;9.25;2.40;;;;;;;;;;5012617;28;20535;-66
2022/03/04 10:06:09;;;;;;;7.38;2.42;;;;;;;;;;5011918;28;20393;-66
2022/03/04 10:08:42;;;;;;;8.60;2.30;;;;;;;;;;5012488;28;20098;-66
2022/03/04 10:11:08;;;;;;;7.70;2.40;;;;;;;;;;5011692;28;20029;-65
2022/03/04 10:13:47;;;;;;;5.60;1.70;;;;;;;;;;5012359;28;20030;-64
2022/03/04 10:16:33;;;;;;;9.13;2.85;;;;;;;;;;5011707;28;20026;-65
2022/03/04 10:19:16;;;;;;;11.40;3.60;;;;;;;;;;5010294;28;20519;-65
2022/03/04 10:21:49;;;;;;;9.82;3.05;;;;;;;;;;5011979;28;20061;-66
2022/03/04 10:24:17;;;;;;;9.35;2.50;;;;;;;;;;5010660;28;20034;-66
2022/03/04 10:26:42;;;;;;;8.10;3.25;;;;;;;;;;5011861;28;20541;-66
2022/03/04 10:29:25;;;;;;;8.25;2.58;;;;;;;;;;5011794;28;20053;-65
2022/03/04 10:32:14;;;;;;;7.10;3.15;;;;;;;;;;5011559;28;20474;-66
2022/03/04 10:34:45;;;;;;;8.68;4.22;;;;;;;;;;5011502;28;20042;-66
2022/03/04 10:37:12;;;;;;;9.43;4.53;;;;;;;;;;5011766;28;20573;-66
2022/03/04 10:40:05;;;;;;;11.10;5.50;;;;;;;;;;5011295;28;20481;-66
2022/03/04 10:42:55;;;;;;;14.25;5.10;;;;;;;;;;4992072;28;20030;-66
2022/03/04 10:45:25;;;;;;;12.38;5.07;;;;;;;;;;4991773;28;20050;-65
2022/03/04 10:47:52;;;;;;;10.75;4.97;;;;;;;;;;4991928;28;20037;-65
2022/03/04 10:50:32;;;;;;;10.60;5.07;;;;;;;;;;4991759;28;20522;-66
2022/03/04 10:53:12;;;;;;;9.45;4.97;;;;;;;;;;4992005;28;20030;-65
2022/03/04 10:55:39;;;;;;;8.32;4.05;;;;;;;;;;4991008;28;20034;-65
2022/03/04 10:58:28;;;;;;;14.10;5.25;;;;;;;;;;4991454;28;20029;-64
2022/03/04 11:00:56;;;;;;;14.70;5.28;;;;;;;;;;4983769;28;20389;-65
2022/03/04 11:03:27;;;;;;;13.65;5.50;;;;;;;;;;4991617;28;20157;-69
2022/03/04 11:05:57;;;;;;;10.75;4.63;;;;;;;;;;4991209;28;20045;-65
2022/03/04 11:08:23;;;;;;;9.43;4.80;;;;;;;;;;4991775;28;20034;-65
2022/03/04 11:10:51;;;;;;;10.60;3.10;;;;;;;;;;4990884;28;20034;-65
2022/03/04 11:13:17;;;;;;;7.10;2.38;;;;;;;;;;4991413;28;20018;-71
2022/03/04 11:15:44;;;;;;;5.90;2.30;;;;;;;;;;4991039;28;20062;-64
2022/03/04 11:18:15;;;;;;;7.25;1.98;;;;;;;;;;4991244;28;20030;-72
2022/03/04 11:20:42;;;;;;;4.38;2.00;;;;;;;;;;4990668;28;20466;-66
2022/03/04 11:23:10;;;;;;;5.65;1.70;;;;;;;;;;4991386;28;20057;-68
2022/03/04 11:25:37;;;;;;;6.45;1.48;;;;;;;;;;4991311;28;20026;-71
2022/03/04 11:28:12;;;;;;;3.00;1.30;;;;;;;;;;4991310;28;20081;-71
2022/03/04 11:30:42;;;;;;;5.15;1.40;;;;;;;;;;4990703;28;20033;-69
2022/03/04 11:33:16;;;;;;;5.57;1.40;;;;;;;;;;4991251;28;20418;-66
2022/03/04 11:35:41;;;;;;;4.85;1.20;;;;;;;;;;4990858;28;20045;-68
2022/03/04 11:38:08;;;;;;;4.70;1.60;;;;;;;;;;4991143;28;20113;-65
2022/03/04 11:40:38;;;;;;;6.75;1.40;;;;;;;;;;4991078;28;20036;-67
2022/03/04 11:43:09;;;;;;;4.60;1.60;;;;;;;;;;4999463;28;20436;-70
2022/03/04 11:45:35;;;;;;;;;;;;;;;;;;5011093;28;20030;-66
2022/03/04 11:48:03;;;;;;;8.00;1.98;;;;;;;;;;5010797;28;19959;-65
2022/03/04 11:50:52;;;;;;;6.18;2.50;;;;;;;;;;5009927;28;20033;-70
2022/03/04 11:53:20;;;;;;;6.57;1.98;;;;;;;;;;5010483;28;20021;-67
2022/03/04 11:56:07;;;;;;;5.30;1.70;;;;;;;;;;5008847;28;20100;-70
2022/03/04 11:58:54;;;;;;;5.90;1.60;;;;;;;;;;5009380;28;20065;-65
2022/03/04 12:01:30;;;;;;;3.42;2.00;;;;;;;;;;5009762;28;20087;-66
2022/03/04 12:04:12;;;;;;;5.57;1.90;;;;;;;;;;5010303;28;20544;-65
2022/03/04 12:06:39;;;;;;;4.18;1.75;;;;;;;;;;5009760;28;20034;-70
2022/03/04 12:09:27;;;;;;;7.93;2.22;;;;;;;;;;5010064;28;20060;-65
2022/03/04 12:12:12;;;;;;;4.22;1.77;;;;;;;;;;5009648;28;20030;-69
2022/03/04 12:14:48;;;;;;;5.25;1.60;;;;;;;;;;5010431;28;20041;-70
2022/03/04 12:17:16;;;;;;;4.75;1.80;;;;;;;;;;5010014;28;20104;-66
2022/03/04 12:19:42;;;;;;;4.45;1.90;;;;;;;;;;5010157;28;20080;-65
2022/03/04 12:22:08;;;;;;;10.18;2.00;;;;;;;;;;5012364;28;20034;-65
2022/03/04 12:24:35;;;;;;;2.72;1.60;;;;;;;;;;5014196;28;20505;-65
2022/03/04 12:27:02;;;;;;;4.47;2.20;;;;;;;;;;5012318;28;20026;-66
2022/03/04 12:29:45;;;;;;;4.57;1.90;;;;;;;;;;5014168;28;20029;-69
2022/03/04 12:32:12;;;;;;;6.20;1.45;;;;;;;;;;5013622;28;20072;-66
2022/03/04 12:34:47;;;;;;;7.60;1.80;;;;;;;;;;5013859;28;20136;-67
2022/03/04 12:37:14;;;;;;;5.75;2.00;;;;;;;;;;5013770;28;20489;-69
2022/03/04 12:39:40;;;;;;;6.20;1.85;;;;;;;;;;5013885;28;20030;-65
2022/03/04 12:42:09;;;;;;;5.28;1.83;;;;;;;;;;5013342;28;20033;-66
2022/03/04 12:44:35;;;;;;;4.90;1.80;;;;;;;;;;5013501;28;20029;-68
2022/03/04 12:47:02;;;;;;;3.90;1.70;;;;;;;;;;5013845;28;20540;-71
2022/03/04 12:49:30;;;;;;;7.78;2.47;;;;;;;;;;5013891;28;20034;-65
2022/03/04 12:51:56;;;;;;;5.03;1.50;;;;;;;;;;5013597;28;20037;-67
2022/03/04 12:54:36;;;;;;;8.55;1.40;;;;;;;;;;5013667;28;20030;-68
2022/03/04 12:57:06;;;;;;;6.65;3.00;;;;;;;;;;5013367;28;20037;-67
2022/03/04 12:59:46;;;;;;;5.75;2.40;;;;;;;;;;5013402;28;20123;-67
2022/03/04 13:02:12;;;;;;;5.90;2.47;;;;;;;;;;5013028;28;20053;-66
2022/03/04 13:04:37;;;;;;;6.40;2.30;;;;;;;;;;5013500;28;20409;-66
2022/03/04 13:07:03;;;;;;;5.90;2.85;;;;;;;;;;5013172;28;20095;-66
2022/03/04 13:09:29;;;;;;;6.72;2.25;;;;;;;;;;5013399;28;20232;-72
2022/03/04 13:11:55;;;;;;;6.78;2.40;;;;;;;;;;5012750;28;20478;-66
2022/03/04 13:14:22;;;;;;;5.20;1.92;;;;;;;;;;5013531;28;20022;-67
2022/03/04 13:16:50;;;;;;;5.65;1.80;;;;;;;;;;5012814;28;20029;-69
2022/03/04 13:19:27;;;;;;;4.38;1.88;;;;;;;;;;5013301;28;20018;-69
2022/03/04 13:22:06;;;;;;;3.75;1.85;;;;;;;;;;5013310;28;20026;-70
2022/03/04 13:24:40;;;;;;;4.00;1.80;;;;;;;;;;5013471;28;20053;-70
2022/03/04 13:27:10;;;;;;;5.20;2.40;;;;;;;;;;5012845;28;20041;-66
2022/03/04 13:29:43;;;;;;;;;;;;;;;;;;5013278;28;20049;-68
2022/03/04 13:32:21;;;;;;;1.90;1.38;;;;;;;;;;5011970;28;19913;-65
2022/03/04 13:34:58;;;;;;;3.15;1.70;;;;;;;;;;5012631;28;20046;-68
2022/03/04 13:37:41;;;;;;;3.53;1.60;;;;;;;;;;5012736;28;20422;-68
2022/03/04 13:40:18;;;;;;;4.93;1.90;;;;;;;;;;5011704;28;20507;-65
2022/03/04 13:42:47;;;;;;;4.28;2.10;;;;;;;;;;5011043;28;20113;-69
2022/03/04 13:45:15;;;;;;;8.85;1.65;;;;;;;;;;5012523;28;20505;-70
2022/03/04 13:47:42;;;;;;;4.47;1.50;;;;;;;;;;5012486;28;20026;-70
2022/03/04 13:50:16;;;;;;;4.35;1.70;;;;;;;;;;5012536;28;20021;-70
2022/03/04 13:52:59;;;;;;;3.65;1.50;;;;;;;;;;5012015;28;20323;-66
2022/03/04 13:55:44;;;;;;;3.25;1.40;;;;;;;;;;5012611;28;20258;-64
2022/03/04 13:58:12;;;;;;;2.38;1.27;;;;;;;;;;5012211;28;20493;-66
2022/03/04 14:00:39;;;;;;;3.75;1.40;;;;;;;;;;5012350;28;20215;-66
2022/03/04 14:03:10;;;;;;;3.13;1.55;;;;;;;;;;5011902;28;20022;-65
2022/03/04 14:05:38;;;;;;;4.07;1.40;;;;;;;;;;5012343;28;20055;-70
2022/03/04 14:08:12;;;;;;;6.85;1.83;;;;;;;;;;5011813;28;20026;-65
2022/03/04 14:10:40;;;;;;;3.90;1.48;;;;;;;;;;5012302;28;20030;-65
2022/03/04 14:13:08;;;;;;;7.38;1.75;;;;;;;;;;5011959;28;20022;-64
2022/03/04 14:15:35;;;;;;;5.30;1.30;;;;;;;;;;5012421;28;20029;-64
2022/03/04 14:18:02;;;;;;;3.72;1.60;;;;;;;;;;5012434;28;20026;-64
2022/03/04 14:20:30;;;;;;;4.25;1.60;;;;;;;;;;5010796;28;20386;-65
2022/03/04 14:22:56;;;;;;;4.25;1.60;;;;;;;;;;5011090;28;20397;-65
2022/03/04 14:25:23;;;;;;;3.25;1.30;;;;;;;;;;5011914;28;20072;-65
2022/03/04 14:27:52;;;;;;;5.97;1.70;;;;;;;;;;5011678;28;20026;-65
2022/03/04 14:30:22;;;;;;;8.40;3.63;;;;;;;;;;5011694;28;20026;-66
2022/03/04 14:32:49;;;;;;;2.88;1.33;;;;;;;;;;5011494;28;20536;-65
2022/03/04 14:35:15;;;;;;;3.00;1.60;;;;;;;;;;5010593;28;20038;-64
2022/03/04 14:37:41;;;;;;;3.70;1.50;;;;;;;;;;5010286;28;20030;-66
2022/03/04 14:40:11;;;;;;;3.42;1.33;;;;;;;;;;5011400;28;20113;-66
2022/03/04 14:42:38;;;;;;;2.92;1.48;;;;;;;;;;5011267;28;20030;-65
2022/03/04 14:45:05;;;;;;;6.13;1.58;;;;;;;;;;5010344;28;20030;-65